sensor_id;sensor_type;location;lat;lon;timestamp;pressure;altitude;pressure_sealevel;temperature
73673;BMP280;61972;19.480;-99.240;2023-07-20T00:01:49;77988.09;;;32.19
73673;BMP280;61972;19.480;-99.240;2023-07-20T00:04:15;77987.00;;;32.18
73673;BMP280;61972;19.480;-99.240;2023-07-20T00:06:41;77989.63;;;32.18
73673;BMP280;61972;19.480;-99.240;2023-07-20T00:09:11;77994.34;;;32.18
73673;BMP280;61972;19.480;-99.240;2023-07-20T00:11:38;77994.94;;;32.18
73673;BMP280;61972;19.480;-99.240;2023-07-20T00:14:05;78002.84;;;32.18
73673;BMP280;61972;19.480;-99.240;2023-07-20T00:16:31;77994.34;;;32.18
73673;BMP280;61972;19.480;-99.240;2023-07-20T00:18:58;78004.38;;;32.17
73673;BMP280;61972;19.480;-99.240;2023-07-20T00:21:25;78010.69;;;32.16
73673;BMP280;61972;19.480;-99.240;2023-07-20T00:23:51;78018.03;;;32.15
73673;BMP280;61972;19.480;-99.240;2023-07-20T00:26:17;78019.56;;;32.14
73673;BMP280;61972;19.480;-99.240;2023-07-20T00:28:46;78019.03;;;32.14
73673;BMP280;61972;19.480;-99.240;2023-07-20T00:31:12;78013.72;;;32.14
73673;BMP280;61972;19.480;-99.240;2023-07-20T00:33:38;78014.72;;;32.12
73673;BMP280;61972;19.480;-99.240;2023-07-20T00:36:05;78017.34;;;32.12
73673;BMP280;61972;19.480;-99.240;2023-07-20T00:38:31;78016.25;;;32.11
73673;BMP280;61972;19.480;-99.240;2023-07-20T00:40:57;78013.59;;;32.11
73673;BMP280;61972;19.480;-99.240;2023-07-20T00:43:24;78013.59;;;32.11
73673;BMP280;61972;19.480;-99.240;2023-07-20T00:45:50;78010.94;;;32.11
73673;BMP280;61972;19.480;-99.240;2023-07-20T00:48:16;78016.69;;;32.09
73673;BMP280;61972;19.480;-99.240;2023-07-20T00:50:43;78017.13;;;32.07
73673;BMP280;61972;19.480;-99.240;2023-07-20T00:53:09;78021.72;;;32.04
73673;BMP280;61972;19.480;-99.240;2023-07-20T00:55:35;78029.66;;;32.04
73673;BMP280;61972;19.480;-99.240;2023-07-20T00:58:02;78018.97;;;32.01
73673;BMP280;61972;19.480;-99.240;2023-07-20T01:00:28;78023.69;;;32.01
73673;BMP280;61972;19.480;-99.240;2023-07-20T01:02:54;78015.75;;;32.01
73673;BMP280;61972;19.480;-99.240;2023-07-20T01:05:21;78022.03;;;31.99
73673;BMP280;61972;19.480;-99.240;2023-07-20T01:07:55;78023.00;;;31.98
73673;BMP280;61972;19.480;-99.240;2023-07-20T01:10:38;78028.28;;;31.98
73673;BMP280;61972;19.480;-99.240;2023-07-20T01:13:07;78032.06;;;31.99
73673;BMP280;61972;19.480;-99.240;2023-07-20T01:15:36;78038.44;;;32.00
73673;BMP280;61972;19.480;-99.240;2023-07-20T01:18:02;78032.59;;;31.99
73673;BMP280;61972;19.480;-99.240;2023-07-20T01:20:32;78045.28;;;31.99
73673;BMP280;61972;19.480;-99.240;2023-07-20T01:26:45;78056.03;;;31.92
73673;BMP280;61972;19.480;-99.240;2023-07-20T01:29:38;78060.72;;;31.91
73673;BMP280;61972;19.480;-99.240;2023-07-20T01:32:10;78060.22;;;31.90
73673;BMP280;61972;19.480;-99.240;2023-07-20T01:34:36;78055.34;;;31.88
73673;BMP280;61972;19.480;-99.240;2023-07-20T01:37:03;78052.16;;;31.88
73673;BMP280;61972;19.480;-99.240;2023-07-20T01:39:31;78046.31;;;31.87
73673;BMP280;61972;19.480;-99.240;2023-07-20T01:41:58;78048.41;;;31.87
73673;BMP280;61972;19.480;-99.240;2023-07-20T01:44:25;78050.47;;;31.86
73673;BMP280;61972;19.480;-99.240;2023-07-20T01:46:51;78047.84;;;31.86
73673;BMP280;61972;19.480;-99.240;2023-07-20T01:49:17;78044.63;;;31.86
73673;BMP280;61972;19.480;-99.240;2023-07-20T01:51:43;78046.72;;;31.85
73673;BMP280;61972;19.480;-99.240;2023-07-20T01:54:09;78047.72;;;31.84
73673;BMP280;61972;19.480;-99.240;2023-07-20T01:56:35;78046.06;;;31.82
73673;BMP280;61972;19.480;-99.240;2023-07-20T01:59:02;78051.34;;;31.82
73673;BMP280;61972;19.480;-99.240;2023-07-20T02:01:28;78060.25;;;31.81
73673;BMP280;61972;19.480;-99.240;2023-07-20T02:03:54;78066.09;;;31.81
73673;BMP280;61972;19.480;-99.240;2023-07-20T02:06:20;78064.44;;;31.80
73673;BMP280;61972;19.480;-99.240;2023-07-20T02:08:46;78064.97;;;31.80
73673;BMP280;61972;19.480;-99.240;2023-07-20T02:11:13;78059.69;;;31.80
73673;BMP280;61972;19.480;-99.240;2023-07-20T02:13:39;78063.31;;;31.79
73673;BMP280;61972;19.480;-99.240;2023-07-20T02:16:05;78051.06;;;31.77
73673;BMP280;61972;19.480;-99.240;2023-07-20T02:18:31;78055.25;;;31.76
73673;BMP280;61972;19.480;-99.240;2023-07-20T02:20:57;78065.72;;;31.74
73673;BMP280;61972;19.480;-99.240;2023-07-20T02:23:23;78066.66;;;31.72
73673;BMP280;61972;19.480;-99.240;2023-07-20T02:25:49;78071.94;;;31.72
73673;BMP280;61972;19.480;-99.240;2023-07-20T02:28:19;78081.97;;;31.71
73673;BMP280;61972;19.480;-99.240;2023-07-20T02:30:48;78090.31;;;31.69
73673;BMP280;61972;19.480;-99.240;2023-07-20T02:33:15;78092.44;;;31.69
73673;BMP280;61972;19.480;-99.240;2023-07-20T02:35:41;78099.25;;;31.68
73673;BMP280;61972;19.480;-99.240;2023-07-20T02:38:07;78097.56;;;31.66
73673;BMP280;61972;19.480;-99.240;2023-07-20T02:40:33;78104.28;;;31.63
73673;BMP280;61972;19.480;-99.240;2023-07-20T02:42:59;78101.91;;;31.58
73673;BMP280;61972;19.480;-99.240;2023-07-20T02:45:27;78104.28;;;31.53
73673;BMP280;61972;19.480;-99.240;2023-07-20T02:47:53;78104.59;;;31.48
73673;BMP280;61972;19.480;-99.240;2023-07-20T02:50:19;78099.06;;;31.43
73673;BMP280;61972;19.480;-99.240;2023-07-20T02:52:45;78106.16;;;31.38
73673;BMP280;61972;19.480;-99.240;2023-07-20T02:55:11;78113.78;;;31.32
73673;BMP280;61972;19.480;-99.240;2023-07-20T02:57:37;78112.97;;;31.27
73673;BMP280;61972;19.480;-99.240;2023-07-20T03:00:04;78121.72;;;31.23
73673;BMP280;61972;19.480;-99.240;2023-07-20T03:02:32;78119.91;;;31.19
73673;BMP280;61972;19.480;-99.240;2023-07-20T03:04:58;78123.41;;;31.15
73673;BMP280;61972;19.480;-99.240;2023-07-20T03:07:27;78137.44;;;31.10
73673;BMP280;61972;19.480;-99.240;2023-07-20T03:09:54;78136.63;;;31.05
73673;BMP280;61972;19.480;-99.240;2023-07-20T03:12:23;78148.56;;;31.01
73673;BMP280;61972;19.480;-99.240;2023-07-20T03:14:50;78146.75;;;30.97
73673;BMP280;61972;19.480;-99.240;2023-07-20T03:17:16;78151.91;;;30.95
73673;BMP280;61972;19.480;-99.240;2023-07-20T03:19:42;78149.16;;;30.92
73673;BMP280;61972;19.480;-99.240;2023-07-20T03:22:08;78161.63;;;30.89
73673;BMP280;61972;19.480;-99.240;2023-07-20T03:24:34;78168.84;;;30.86
73673;BMP280;61972;19.480;-99.240;2023-07-20T03:27:01;78166.59;;;30.84
73673;BMP280;61972;19.480;-99.240;2023-07-20T03:29:27;78176.06;;;30.83
73673;BMP280;61972;19.480;-99.240;2023-07-20T03:31:53;78174.94;;;30.82
73673;BMP280;61972;19.480;-99.240;2023-07-20T03:34:19;78175.34;;;30.80
73673;BMP280;61972;19.480;-99.240;2023-07-20T03:36:45;78181.59;;;30.78
73673;BMP280;61972;19.480;-99.240;2023-07-20T03:39:11;78177.31;;;30.77
73673;BMP280;61972;19.480;-99.240;2023-07-20T03:41:37;78180.91;;;30.75
73673;BMP280;61972;19.480;-99.240;2023-07-20T03:44:03;78184.53;;;30.73
73673;BMP280;61972;19.480;-99.240;2023-07-20T03:46:30;78191.88;;;30.73
73673;BMP280;61972;19.480;-99.240;2023-07-20T03:48:56;78192.31;;;30.71
73673;BMP280;61972;19.480;-99.240;2023-07-20T03:51:23;78187.97;;;30.69
73673;BMP280;61972;19.480;-99.240;2023-07-20T03:53:49;78194.78;;;30.68
73673;BMP280;61972;19.480;-99.240;2023-07-20T03:56:15;78190.63;;;30.69
73673;BMP280;61972;19.480;-99.240;2023-07-20T03:58:41;78188.41;;;30.67
73673;BMP280;61972;19.480;-99.240;2023-07-20T04:01:07;78189.91;;;30.66
73673;BMP280;61972;19.480;-99.240;2023-07-20T04:03:33;78187.84;;;30.67
73673;BMP280;61972;19.480;-99.240;2023-07-20T04:06:00;78190.47;;;30.67
73673;BMP280;61972;19.480;-99.240;2023-07-20T04:08:26;78184.63;;;30.66
73673;BMP280;61972;19.480;-99.240;2023-07-20T04:10:53;78194.09;;;30.65
73673;BMP280;61972;19.480;-99.240;2023-07-20T04:13:19;78198.81;;;30.65
73673;BMP280;61972;19.480;-99.240;2023-07-20T04:15:45;78199.94;;;30.66
73673;BMP280;61972;19.480;-99.240;2023-07-20T04:18:11;78204.66;;;30.65
73673;BMP280;61972;19.480;-99.240;2023-07-20T04:20:37;78208.81;;;30.64
73673;BMP280;61972;19.480;-99.240;2023-07-20T04:23:03;78207.72;;;30.63
73673;BMP280;61972;19.480;-99.240;2023-07-20T04:25:29;78201.31;;;30.62
73673;BMP280;61972;19.480;-99.240;2023-07-20T04:28:07;78217.16;;;30.62
73673;BMP280;61972;19.480;-99.240;2023-07-20T04:30:36;78217.00;;;30.60
73673;BMP280;61972;19.480;-99.240;2023-07-20T04:33:06;78219.06;;;30.59
73673;BMP280;61972;19.480;-99.240;2023-07-20T04:35:51;78220.59;;;30.58
73673;BMP280;61972;19.480;-99.240;2023-07-20T04:38:18;78223.22;;;30.58
73673;BMP280;61972;19.480;-99.240;2023-07-20T04:40:45;78228.50;;;30.58
73673;BMP280;61972;19.480;-99.240;2023-07-20T04:43:12;78222.13;;;30.57
73673;BMP280;61972;19.480;-99.240;2023-07-20T04:45:38;78217.25;;;30.55
73673;BMP280;61972;19.480;-99.240;2023-07-20T04:48:10;78225.16;;;30.55
73673;BMP280;61972;19.480;-99.240;2023-07-20T04:50:43;78229.34;;;30.54
73673;BMP280;61972;19.480;-99.240;2023-07-20T04:53:11;78225.16;;;30.55
73673;BMP280;61972;19.480;-99.240;2023-07-20T04:55:38;78223.66;;;30.56
73673;BMP280;61972;19.480;-99.240;2023-07-20T04:58:05;78225.16;;;30.55
73673;BMP280;61972;19.480;-99.240;2023-07-20T05:00:33;78228.38;;;30.55
73673;BMP280;61972;19.480;-99.240;2023-07-20T05:02:59;78234.63;;;30.54
73673;BMP280;61972;19.480;-99.240;2023-07-20T05:05:25;78228.78;;;30.53
73673;BMP280;61972;19.480;-99.240;2023-07-20T05:07:51;78228.78;;;30.53
73673;BMP280;61972;19.480;-99.240;2023-07-20T05:10:18;78230.31;;;30.52
73673;BMP280;61972;19.480;-99.240;2023-07-20T05:12:44;78232.38;;;30.52
73673;BMP280;61972;19.480;-99.240;2023-07-20T05:15:10;78229.59;;;30.49
73673;BMP280;61972;19.480;-99.240;2023-07-20T05:17:36;78230.16;;;30.50
73673;BMP280;61972;19.480;-99.240;2023-07-20T05:20:02;78229.03;;;30.49
73673;BMP280;61972;19.480;-99.240;2023-07-20T05:22:30;78227.94;;;30.48
73673;BMP280;61972;19.480;-99.240;2023-07-20T05:24:56;78227.94;;;30.48
73673;BMP280;61972;19.480;-99.240;2023-07-20T05:27:22;78218.91;;;30.47
73673;BMP280;61972;19.480;-99.240;2023-07-20T05:29:49;78221.53;;;30.47
73673;BMP280;61972;19.480;-99.240;2023-07-20T05:32:15;78217.38;;;30.48
73673;BMP280;61972;19.480;-99.240;2023-07-20T05:34:41;78222.09;;;30.47
73673;BMP280;61972;19.480;-99.240;2023-07-20T05:37:07;78219.44;;;30.47
73673;BMP280;61972;19.480;-99.240;2023-07-20T05:39:34;78222.66;;;30.48
73673;BMP280;61972;19.480;-99.240;2023-07-20T05:42:00;78227.38;;;30.47
73673;BMP280;61972;19.480;-99.240;2023-07-20T05:44:27;78232.09;;;30.47
73673;BMP280;61972;19.480;-99.240;2023-07-20T05:46:53;78237.38;;;30.47
73673;BMP280;61972;19.480;-99.240;2023-07-20T05:49:19;78238.50;;;30.48
73673;BMP280;61972;19.480;-99.240;2023-07-20T05:51:45;78227.94;;;30.48
73673;BMP280;61972;19.480;-99.240;2023-07-20T05:54:15;78225.72;;;30.46
73673;BMP280;61972;19.480;-99.240;2023-07-20T05:56:41;78226.25;;;30.46
73673;BMP280;61972;19.480;-99.240;2023-07-20T05:59:08;78222.53;;;30.45
73673;BMP280;61972;19.480;-99.240;2023-07-20T06:01:34;78218.75;;;30.44
73673;BMP280;61972;19.480;-99.240;2023-07-20T06:04:00;78216.69;;;30.45
73673;BMP280;61972;19.480;-99.240;2023-07-20T06:06:26;78206.69;;;30.45
73673;BMP280;61972;19.480;-99.240;2023-07-20T06:08:52;78208.75;;;30.45
73673;BMP280;61972;19.480;-99.240;2023-07-20T06:11:19;78209.34;;;30.45
73673;BMP280;61972;19.480;-99.240;2023-07-20T06:13:45;78208.22;;;30.44
73673;BMP280;61972;19.480;-99.240;2023-07-20T06:16:11;78212.91;;;30.44
73673;BMP280;61972;19.480;-99.240;2023-07-20T06:18:37;78214.44;;;30.43
73673;BMP280;61972;19.480;-99.240;2023-07-20T06:21:04;78217.50;;;30.41
73673;BMP280;61972;19.480;-99.240;2023-07-20T06:23:30;78209.56;;;30.41
73673;BMP280;61972;19.480;-99.240;2023-07-20T06:25:56;78198.47;;;30.40
73673;BMP280;61972;19.480;-99.240;2023-07-20T06:28:22;78202.66;;;30.39
73673;BMP280;61972;19.480;-99.240;2023-07-20T06:30:48;78194.31;;;30.41
73673;BMP280;61972;19.480;-99.240;2023-07-20T06:33:16;78204.28;;;30.41
73673;BMP280;61972;19.480;-99.240;2023-07-20T06:35:42;78199.59;;;30.41
73673;BMP280;61972;19.480;-99.240;2023-07-20T06:38:09;78199.59;;;30.41
73673;BMP280;61972;19.480;-99.240;2023-07-20T06:40:35;78190.00;;;30.40
73673;BMP280;61972;19.480;-99.240;2023-07-20T06:43:01;78192.66;;;30.40
73673;BMP280;61972;19.480;-99.240;2023-07-20T06:45:27;78189.03;;;30.41
73673;BMP280;61972;19.480;-99.240;2023-07-20T06:47:53;78189.59;;;30.42
73673;BMP280;61972;19.480;-99.240;2023-07-20T06:50:19;78178.50;;;30.41
73673;BMP280;61972;19.480;-99.240;2023-07-20T06:52:46;78173.22;;;30.41
73673;BMP280;61972;19.480;-99.240;2023-07-20T06:55:13;78175.72;;;30.39
73673;BMP280;61972;19.480;-99.240;2023-07-20T06:57:40;78175.16;;;30.38
73673;BMP280;61972;19.480;-99.240;2023-07-20T07:00:06;78175.72;;;30.39
73673;BMP280;61972;19.480;-99.240;2023-07-20T07:02:32;78169.31;;;30.38
73673;BMP280;61972;19.480;-99.240;2023-07-20T07:05:00;78162.94;;;30.37
73673;BMP280;61972;19.480;-99.240;2023-07-20T07:07:27;78162.94;;;30.37
73673;BMP280;61972;19.480;-99.240;2023-07-20T07:09:53;78156.56;;;30.35
73673;BMP280;61972;19.480;-99.240;2023-07-20T07:12:19;78160.31;;;30.37
73673;BMP280;61972;19.480;-99.240;2023-07-20T07:14:45;78157.25;;;30.39
73673;BMP280;61972;19.480;-99.240;2023-07-20T07:17:11;78158.78;;;30.38
73673;BMP280;61972;19.480;-99.240;2023-07-20T07:19:37;78168.75;;;30.37
73673;BMP280;61972;19.480;-99.240;2023-07-20T07:22:04;78164.47;;;30.35
73673;BMP280;61972;19.480;-99.240;2023-07-20T07:24:30;78161.84;;;30.35
73673;BMP280;61972;19.480;-99.240;2023-07-20T07:27:00;78169.75;;;30.35
73673;BMP280;61972;19.480;-99.240;2023-07-20T07:29:27;78177.09;;;30.35
73673;BMP280;61972;19.480;-99.240;2023-07-20T07:31:53;78165.97;;;30.34
73673;BMP280;61972;19.480;-99.240;2023-07-20T07:34:19;78166.53;;;30.35
73673;BMP280;61972;19.480;-99.240;2023-07-20T07:36:45;78170.16;;;30.33
73673;BMP280;61972;19.480;-99.240;2023-07-20T07:39:12;78162.94;;;30.37
73673;BMP280;61972;19.480;-99.240;2023-07-20T07:41:39;78161.16;;;30.42
73673;BMP280;61972;19.480;-99.240;2023-07-20T07:44:05;78156.72;;;30.48
73673;BMP280;61972;19.480;-99.240;2023-07-20T07:46:31;78147.97;;;30.52
73673;BMP280;61972;19.480;-99.240;2023-07-20T07:48:58;78150.91;;;30.57
73673;BMP280;61972;19.480;-99.240;2023-07-20T07:51:24;78143.69;;;30.60
73673;BMP280;61972;19.480;-99.240;2023-07-20T07:53:55;78139.13;;;30.63
73673;BMP280;61972;19.480;-99.240;2023-07-20T07:56:21;78138.25;;;30.67
73673;BMP280;61972;19.480;-99.240;2023-07-20T07:58:51;78136.91;;;30.71
73673;BMP280;61972;19.480;-99.240;2023-07-20T08:01:17;78131.88;;;30.76
73673;BMP280;61972;19.480;-99.240;2023-07-20T08:03:47;78130.50;;;30.80
73673;BMP280;61972;19.480;-99.240;2023-07-20T08:06:14;78129.66;;;30.84
73673;BMP280;61972;19.480;-99.240;2023-07-20T08:08:40;78120.94;;;30.88
73673;BMP280;61972;19.480;-99.240;2023-07-20T08:11:06;78112.19;;;30.92
73673;BMP280;61972;19.480;-99.240;2023-07-20T08:13:32;78109.25;;;30.97
73673;BMP280;61972;19.480;-99.240;2023-07-20T08:15:59;78106.31;;;31.01
73673;BMP280;61972;19.480;-99.240;2023-07-20T08:18:25;78092.72;;;31.03
73673;BMP280;61972;19.480;-99.240;2023-07-20T08:20:51;78091.88;;;31.07
73673;BMP280;61972;19.480;-99.240;2023-07-20T08:23:17;78085.06;;;31.08
73673;BMP280;61972;19.480;-99.240;2023-07-20T08:25:43;78088.81;;;31.09
73673;BMP280;61972;19.480;-99.240;2023-07-20T08:28:10;78084.63;;;31.10
73673;BMP280;61972;19.480;-99.240;2023-07-20T08:30:41;78084.22;;;31.12
73673;BMP280;61972;19.480;-99.240;2023-07-20T08:33:08;78082.13;;;31.13
73673;BMP280;61972;19.480;-99.240;2023-07-20T08:35:35;78085.34;;;31.13
73673;BMP280;61972;19.480;-99.240;2023-07-20T08:38:01;78078.53;;;31.15
73673;BMP280;61972;19.480;-99.240;2023-07-20T08:40:27;78074.34;;;31.16
73673;BMP280;61972;19.480;-99.240;2023-07-20T08:42:54;78075.47;;;31.17
73673;BMP280;61972;19.480;-99.240;2023-07-20T08:45:22;78071.84;;;31.18
73673;BMP280;61972;19.480;-99.240;2023-07-20T08:47:50;78064.47;;;31.19
73673;BMP280;61972;19.480;-99.240;2023-07-20T08:50:16;78064.06;;;31.21
73673;BMP280;61972;19.480;-99.240;2023-07-20T08:52:43;78059.88;;;31.22
73673;BMP280;61972;19.480;-99.240;2023-07-20T08:55:09;78056.81;;;31.24
73673;BMP280;61972;19.480;-99.240;2023-07-20T08:57:36;78060.16;;;31.27
73673;BMP280;61972;19.480;-99.240;2023-07-20T09:00:03;78061.81;;;31.28
73673;BMP280;61972;19.480;-99.240;2023-07-20T09:02:39;78059.31;;;31.31
73673;BMP280;61972;19.480;-99.240;2023-07-20T09:05:09;78053.59;;;31.33
73673;BMP280;61972;19.480;-99.240;2023-07-20T09:07:39;78051.53;;;31.34
73673;BMP280;61972;19.480;-99.240;2023-07-20T09:10:07;78056.22;;;31.33
73673;BMP280;61972;19.480;-99.240;2023-07-20T09:12:38;78056.22;;;31.33
73673;BMP280;61972;19.480;-99.240;2023-07-20T09:15:05;78061.50;;;31.33
73673;BMP280;61972;19.480;-99.240;2023-07-20T09:17:31;78054.72;;;31.34
73673;BMP280;61972;19.480;-99.240;2023-07-20T09:19:57;78060.00;;;31.34
73673;BMP280;61972;19.480;-99.240;2023-07-20T09:22:30;78064.72;;;31.34
73673;BMP280;61972;19.480;-99.240;2023-07-20T09:25:01;78067.91;;;31.34
73673;BMP280;61972;19.480;-99.240;2023-07-20T09:27:44;78071.53;;;31.32
73673;BMP280;61972;19.480;-99.240;2023-07-20T09:30:11;78071.53;;;31.32
73673;BMP280;61972;19.480;-99.240;2023-07-20T09:32:44;78064.59;;;31.31
73673;BMP280;61972;19.480;-99.240;2023-07-20T09:35:18;78064.03;;;31.30
73673;BMP280;61972;19.480;-99.240;2023-07-20T09:40:20;78063.47;;;31.30
73673;BMP280;61972;19.480;-99.240;2023-07-20T09:42:47;78057.09;;;31.29
73673;BMP280;61972;19.480;-99.240;2023-07-20T09:45:14;78065.56;;;31.29
73673;BMP280;61972;19.480;-99.240;2023-07-20T09:47:40;78067.66;;;31.29
73673;BMP280;61972;19.480;-99.240;2023-07-20T09:50:08;78059.75;;;31.29
73673;BMP280;61972;19.480;-99.240;2023-07-20T09:52:39;78051.81;;;31.29
73673;BMP280;61972;19.480;-99.240;2023-07-20T09:55:12;78057.09;;;31.29
73673;BMP280;61972;19.480;-99.240;2023-07-20T09:57:39;78057.09;;;31.29
73673;BMP280;61972;19.480;-99.240;2023-07-20T10:00:07;78065.56;;;31.29
73673;BMP280;61972;19.480;-99.240;2023-07-20T10:02:44;78062.38;;;31.29
73673;BMP280;61972;19.480;-99.240;2023-07-20T10:05:12;78053.34;;;31.28
73673;BMP280;61972;19.480;-99.240;2023-07-20T10:07:44;78054.88;;;31.27
73673;BMP280;61972;19.480;-99.240;2023-07-20T10:10:11;78054.47;;;31.29
73673;BMP280;61972;19.480;-99.240;2023-07-20T10:12:47;78053.47;;;31.30
73673;BMP280;61972;19.480;-99.240;2023-07-20T10:15:54;78053.59;;;31.33
73673;BMP280;61972;19.480;-99.240;2023-07-20T10:21:01;78058.88;;;31.33
73673;BMP280;61972;19.480;-99.240;2023-07-20T10:23:31;78061.50;;;31.33
73673;BMP280;61972;19.480;-99.240;2023-07-20T10:26:01;78056.22;;;31.33
73673;BMP280;61972;19.480;-99.240;2023-07-20T10:28:28;78059.31;;;31.31
73673;BMP280;61972;19.480;-99.240;2023-07-20T10:30:55;78055.13;;;31.32
73673;BMP280;61972;19.480;-99.240;2023-07-20T10:33:21;78055.13;;;31.32
73673;BMP280;61972;19.480;-99.240;2023-07-20T10:35:52;78057.09;;;31.29
73673;BMP280;61972;19.480;-99.240;2023-07-20T10:38:19;78051.81;;;31.29
73673;BMP280;61972;19.480;-99.240;2023-07-20T10:40:54;78055.97;;;31.28
73673;BMP280;61972;19.480;-99.240;2023-07-20T10:43:21;78054.28;;;31.26
73673;BMP280;61972;19.480;-99.240;2023-07-20T10:45:52;78050.00;;;31.25
73673;BMP280;61972;19.480;-99.240;2023-07-20T10:48:22;78052.66;;;31.25
73673;BMP280;61972;19.480;-99.240;2023-07-20T10:51:14;78051.53;;;31.24
73673;BMP280;61972;19.480;-99.240;2023-07-20T10:53:48;78053.78;;;31.26
73673;BMP280;61972;19.480;-99.240;2023-07-20T10:56:19;78049.59;;;31.27
73673;BMP280;61972;19.480;-99.240;2023-07-20T10:58:46;78040.69;;;31.28
73673;BMP280;61972;19.480;-99.240;2023-07-20T11:01:18;78050.28;;;31.30
73673;BMP280;61972;19.480;-99.240;2023-07-20T11:03:49;78058.75;;;31.30
73673;BMP280;61972;19.480;-99.240;2023-07-20T11:09:10;78068.75;;;31.30
73673;BMP280;61972;19.480;-99.240;2023-07-20T11:11:38;78074.03;;;31.30
73673;BMP280;61972;19.480;-99.240;2023-07-20T11:14:21;78077.13;;;31.28
73673;BMP280;61972;19.480;-99.240;2023-07-20T11:16:49;78079.19;;;31.27
73673;BMP280;61972;19.480;-99.240;2023-07-20T11:19:25;78079.06;;;31.25
73673;BMP280;61972;19.480;-99.240;2023-07-20T11:21:56;78091.56;;;31.22
73673;BMP280;61972;19.480;-99.240;2023-07-20T11:24:22;78093.50;;;31.19
73673;BMP280;61972;19.480;-99.240;2023-07-20T11:26:52;78095.06;;;31.18
73673;BMP280;61972;19.480;-99.240;2023-07-20T11:29:19;78094.91;;;31.15
73673;BMP280;61972;19.480;-99.240;2023-07-20T11:31:47;78092.69;;;31.13
73673;BMP280;61972;19.480;-99.240;2023-07-20T11:34:15;78097.41;;;31.12
73673;BMP280;61972;19.480;-99.240;2023-07-20T11:36:51;78088.41;;;31.11
73673;BMP280;61972;19.480;-99.240;2023-07-20T11:39:22;78087.28;;;31.10
73673;BMP280;61972;19.480;-99.240;2023-07-20T11:41:55;78081.44;;;31.10
73673;BMP280;61972;19.480;-99.240;2023-07-20T11:44:23;78069.78;;;31.09
73673;BMP280;61972;19.480;-99.240;2023-07-20T11:49:37;78061.19;;;31.06
73673;BMP280;61972;19.480;-99.240;2023-07-20T11:52:11;78067.44;;;31.04
73673;BMP280;61972;19.480;-99.240;2023-07-20T11:54:56;78071.59;;;31.03
73673;BMP280;61972;19.480;-99.240;2023-07-20T11:57:23;78073.56;;;31.00
73673;BMP280;61972;19.480;-99.240;2023-07-20T11:59:56;78076.59;;;30.98
73673;BMP280;61972;19.480;-99.240;2023-07-20T12:02:23;78068.53;;;30.96
73673;BMP280;61972;19.480;-99.240;2023-07-20T12:04:54;78072.72;;;30.95
73673;BMP280;61972;19.480;-99.240;2023-07-20T12:07:21;78076.31;;;30.93
73673;BMP280;61972;19.480;-99.240;2023-07-20T12:10:26;78082.47;;;30.89
73673;BMP280;61972;19.480;-99.240;2023-07-20T12:13:04;78082.47;;;30.89
73673;BMP280;61972;19.480;-99.240;2023-07-20T12:15:31;78087.75;;;30.89
73673;BMP280;61972;19.480;-99.240;2023-07-20T12:18:12;78080.22;;;30.87
73673;BMP280;61972;19.480;-99.240;2023-07-20T12:20:38;78086.63;;;30.88
73673;BMP280;61972;19.480;-99.240;2023-07-20T12:23:37;78085.91;;;30.85
73673;BMP280;61972;19.480;-99.240;2023-07-20T12:26:09;78093.84;;;30.85
73673;BMP280;61972;19.480;-99.240;2023-07-20T12:28:39;78097.47;;;30.83
73673;BMP280;61972;19.480;-99.240;2023-07-20T12:31:11;78095.78;;;30.82
73673;BMP280;61972;19.480;-99.240;2023-07-20T12:33:38;78094.66;;;30.81
73673;BMP280;61972;19.480;-99.240;2023-07-20T12:36:22;78105.78;;;30.81
73673;BMP280;61972;19.480;-99.240;2023-07-20T12:38:48;78110.09;;;30.83
73673;BMP280;61972;19.480;-99.240;2023-07-20T12:41:24;78111.59;;;30.82
73673;BMP280;61972;19.480;-99.240;2023-07-20T12:43:56;78114.25;;;30.82
73673;BMP280;61972;19.480;-99.240;2023-07-20T12:46:25;78107.44;;;30.83
73673;BMP280;61972;19.480;-99.240;2023-07-20T12:48:55;78112.72;;;30.83
73673;BMP280;61972;19.480;-99.240;2023-07-20T12:51:22;78113.13;;;30.81
73673;BMP280;61972;19.480;-99.240;2023-07-20T12:53:48;78110.50;;;30.81
73673;BMP280;61972;19.480;-99.240;2023-07-20T12:56:14;78110.50;;;30.81
73673;BMP280;61972;19.480;-99.240;2023-07-20T12:58:40;78112.72;;;30.83
73673;BMP280;61972;19.480;-99.240;2023-07-20T13:01:09;78110.78;;;30.86
73673;BMP280;61972;19.480;-99.240;2023-07-20T13:03:38;78125.50;;;30.85
73673;BMP280;61972;19.480;-99.240;2023-07-20T13:06:04;78117.72;;;30.87
73673;BMP280;61972;19.480;-99.240;2023-07-20T13:08:30;78118.28;;;30.88
73673;BMP280;61972;19.480;-99.240;2023-07-20T13:10:56;78115.66;;;30.88
73673;BMP280;61972;19.480;-99.240;2023-07-20T13:13:22;78120.34;;;30.87
73673;BMP280;61972;19.480;-99.240;2023-07-20T13:15:49;78117.72;;;30.87
73673;BMP280;61972;19.480;-99.240;2023-07-20T13:18:15;78117.16;;;30.87
73673;BMP280;61972;19.480;-99.240;2023-07-20T13:20:42;78126.75;;;30.88
73673;BMP280;61972;19.480;-99.240;2023-07-20T13:23:08;78128.28;;;30.87
73673;BMP280;61972;19.480;-99.240;2023-07-20T13:26:04;78143.56;;;30.87
73673;BMP280;61972;19.480;-99.240;2023-07-20T13:28:56;78141.06;;;30.89
73673;BMP280;61972;19.480;-99.240;2023-07-20T13:31:29;78140.53;;;30.89
73673;BMP280;61972;19.480;-99.240;2023-07-20T13:33:55;78130.50;;;30.89
73673;BMP280;61972;19.480;-99.240;2023-07-20T13:36:23;78132.19;;;30.91
73673;BMP280;61972;19.480;-99.240;2023-07-20T13:38:52;78128.03;;;30.92
73673;BMP280;61972;19.480;-99.240;2023-07-20T13:41:19;78121.63;;;30.91
73673;BMP280;61972;19.480;-99.240;2023-07-20T13:43:45;78120.50;;;30.90
73673;BMP280;61972;19.480;-99.240;2023-07-20T13:46:11;78119.94;;;30.89
73673;BMP280;61972;19.480;-99.240;2023-07-20T13:48:37;78118.41;;;30.90
73673;BMP280;61972;19.480;-99.240;2023-07-20T13:51:33;78122.75;;;30.92
73673;BMP280;61972;19.480;-99.240;2023-07-20T13:53:59;78118.53;;;30.93
73673;BMP280;61972;19.480;-99.240;2023-07-20T13:56:58;78118.53;;;30.93
73673;BMP280;61972;19.480;-99.240;2023-07-20T13:59:54;78114.38;;;30.94
73673;BMP280;61972;19.480;-99.240;2023-07-20T14:02:25;78115.50;;;30.95
73673;BMP280;61972;19.480;-99.240;2023-07-20T14:04:51;78106.06;;;30.96
73673;BMP280;61972;19.480;-99.240;2023-07-20T14:07:20;78108.84;;;30.99